FGSLFOOG

Guest
Details From FGSL - MALABO
To FOOG - Port Gentil
Flight Number -
Tags generated
Created
Modified
Stats Distance 307 nm / 568 km
Max Altitude 33,700 ft / 10,272 m
Waypoints 6
Social Downloads 1
Likes 0
Share VATSIM

Download

Looking for another format? Having issues loading an existing format? Contact us
Advertisement - Login to hide

Notes

Basic altitude profile: - Ascent Rate: 2500ft/min - Ascent Speed: 250kts - Cruise Altitude: 35000ft - Cruise Speed: 420kts - Descent Rate: 1500ft/min - Descent Speed: 250kts Options: - Use NATs: yes - Use PACOTS: yes - Use low airways: yes - Use high airways: yes

Route

FGSL MOPOT G857G BT UG857 LV G857G TEMKI FOOG

ID Type Via Altitude Latitude Longitude Leg Dist Tot Dist Heading (true) Name
O FGSL APT - 0 ft / 0 m 3.75527˚ 8.70872˚ - 0 nm - MALABO
MOPOT FIX - 33,700 ft / 10,272 m 2.60417˚ 9.78250˚ 94 nm 94 nm 137° / 137° -
BT NDB G857G (AWY-LO) 23,500 ft / 7,163 m 1.90572˚ 9.80206˚ 41 nm 136 nm 178° / 178° BATA NDB
LV VOR UG857 (AWY-HI) 24,500 ft / 7,468 m 0.47983˚ 9.40197˚ 88 nm 225 nm 196° / 196° LIBREVILLE VOR-DME
TEMKI FIX G857G (AWY-LO) 8,100 ft / 2,469 m -0.15722˚ 9.06611˚ 43 nm 268 nm 208° / 208° -
O FOOG APT - 0 ft / 0 m -0.71174˚ 8.75438˚ 38 nm 306 nm 209° / 209° Port Gentil

Altitude Profile

Advertisement - Login to hide

Weather


0- 5 10 15 20 25 30 35+ Temperature / ° C

Clouds and Precipitation
Forecast for 2018-05-24 00:00 UTC. Updated 5 hours ago

Ground ~20,000 ft ~40,000 ft Winds

FGSL

Details ICAO FGSL (SSG)
Name MALABO
Region Equatorial Guinea
Timezone Africa/Malabo (UTC+1.0)
Stats Elevation 76 ft / 23 m (AMSL)
Location 3.755267° 8.708717°
Runways 1
Magnetic Variation 1.366° W

METAR

FGSL 240300Z 17003KT 080V240 9999 TS FEW010 FEW020CB 26/24 Q1012 NOSIG

Decode

TAF

TAF FGSL 232300Z 2400/2506 24006KT 9999 SCT012 FEW020CB TEMPO 2402/2408 4000 TSRA BKN008 FEW018CB BECMG 2410/2412 BKN010 FEW020CB

Decode

Departure Runways

ID Width Length Bearing (true) Bearing (mag) Surface Threshold Offset Overrun Length
05 151 ft / 46 m 9,642 ft / 2,939 m 41.72° 43.09° Concrete 0 ft / 0 m 0 ft / 0 m
23 151 ft / 46 m 9,642 ft / 2,939 m 221.72° 223.09° Concrete 0 ft / 0 m 161 ft / 49 m

FOOG

Details ICAO FOOG (POG)
Name Port Gentil
Region Gabon
Timezone Africa/Libreville (UTC+1.0)
Stats Elevation 13 ft / 4 m (AMSL)
Location -0.711739° 8.754382°
Runways 1
Magnetic Variation 2.364° W

METAR

Not found

TAF

TAF FOOG 232300Z 2400/2424 20010KT 9999 SCT012 FEW020CB TEMPO 2408/2412 4000 TSRA BKN008 FEW020CB

Decode

Destination Runways

ID Width Length Bearing (true) Bearing (mag) Surface Threshold Offset Overrun Length
03 148 ft / 45 m 6,265 ft / 1,910 m 22.17° 24.53° Asphalt 0 ft / 0 m 0 ft / 0 m
21 148 ft / 45 m 6,265 ft / 1,910 m 202.17° 204.53° Asphalt 0 ft / 0 m 197 ft / 60 m

Popular Alternatives